createdAt,value
2023-07-18T00:04:35.285Z,97
2023-07-18T00:09:33.161Z,97
2023-07-18T00:14:33.228Z,97
2023-07-18T00:19:33.442Z,97
2023-07-18T00:24:31.924Z,97
2023-07-18T00:29:31.924Z,98
2023-07-18T00:34:31.749Z,98
2023-07-18T00:39:33.572Z,98
2023-07-18T00:44:24.923Z,98
2023-07-18T00:49:19.856Z,98
2023-07-18T00:54:19.422Z,98
2023-07-18T00:59:07.765Z,98
2023-07-18T01:04:03.772Z,98
2023-07-18T01:09:03.242Z,98
2023-07-18T01:14:03.540Z,98
2023-07-18T01:19:02.842Z,98
2023-07-18T01:24:03.453Z,98
2023-07-18T01:29:03.915Z,98
2023-07-18T01:34:03.606Z,98
2023-07-18T01:39:00.959Z,98
2023-07-18T01:44:00.453Z,98
2023-07-18T01:49:00.699Z,98
2023-07-18T01:54:00.517Z,98
2023-07-18T01:58:59.876Z,98
2023-07-18T02:04:00.066Z,98
2023-07-18T02:09:00.090Z,98
2023-07-18T02:13:59.587Z,98
2023-07-18T02:19:01.044Z,98
2023-07-18T02:23:57.335Z,98
2023-07-18T02:28:57.152Z,98
2023-07-18T02:33:57.410Z,98
2023-07-18T02:38:57.297Z,99
2023-07-18T02:43:54.838Z,99
2023-07-18T02:48:55.048Z,99
2023-07-18T02:53:54.577Z,99
2023-07-18T02:58:55.903Z,99
2023-07-18T03:05:16.914Z,99
2023-07-18T03:10:17.150Z,99
2023-07-18T03:15:16.824Z,99
2023-07-18T03:20:14.299Z,99
2023-07-18T03:25:13.858Z,99
2023-07-18T03:30:14.052Z,99
2023-07-18T03:35:13.748Z,99
2023-07-18T03:40:13.074Z,99
2023-07-18T03:45:13.325Z,99
2023-07-18T03:50:13.385Z,99
2023-07-18T03:59:36.425Z,99
2023-07-18T04:04:32.730Z,99
2023-07-18T04:09:32.416Z,99
2023-07-18T04:14:32.530Z,99
2023-07-18T04:19:32.409Z,99
2023-07-18T04:24:30.572Z,99
2023-07-18T04:29:30.394Z,99
2023-07-18T04:34:30.016Z,99
2023-07-18T04:39:29.308Z,99
2023-07-18T04:44:29.492Z,99
2023-07-18T04:49:29.558Z,99
2023-07-18T04:54:29.290Z,99
2023-07-18T04:59:35.273Z,99
2023-07-18T05:04:19.489Z,99
2023-07-18T05:09:19.445Z,98
2023-07-18T05:14:18.997Z,99
2023-07-18T05:19:20.360Z,99
2023-07-18T05:24:16.552Z,98
2023-07-18T05:29:16.237Z,99
2023-07-18T05:34:16.527Z,98
2023-07-18T05:39:16.314Z,98
2023-07-18T05:44:13.569Z,98
2023-07-18T05:49:12.853Z,97
2023-07-18T05:54:12.920Z,97
2023-07-18T05:59:14.740Z,97
2023-07-18T06:04:10.866Z,97
2023-07-18T06:09:10.546Z,96
2023-07-18T06:14:10.959Z,96
2023-07-18T06:19:10.926Z,96
2023-07-18T06:24:19.193Z,96
2023-07-18T06:29:10.293Z,95
2023-07-18T06:34:08.022Z,95
2023-07-18T06:39:07.758Z,95
2023-07-18T06:44:07.191Z,94
2023-07-18T06:49:07.417Z,93
2023-07-18T06:54:07.452Z,92
2023-07-18T06:59:06.862Z,92
2023-07-18T07:04:08.470Z,90
2023-07-18T07:09:04.576Z,90
2023-07-18T07:14:04.370Z,89
2023-07-18T07:19:04.551Z,88
2023-07-18T07:24:04.461Z,88
2023-07-18T07:29:01.821Z,88
2023-07-18T07:34:01.573Z,86
2023-07-18T07:39:01.412Z,85
2023-07-18T07:44:02.846Z,86
2023-07-18T07:48:59.303Z,85
2023-07-18T07:53:58.586Z,84
2023-07-18T07:59:11.445Z,84
2023-07-18T08:01:41.351Z,84
2023-07-18T08:05:31.630Z,83
2023-07-18T08:10:31.758Z,82
2023-07-18T08:15:32.597Z,76
2023-07-18T08:20:33.565Z,77
2023-07-18T08:25:20.203Z,77
2023-07-18T08:30:19.871Z,78
2023-07-18T08:35:19.582Z,77
2023-07-18T08:40:21.021Z,73
2023-07-18T08:45:17.159Z,71
2023-07-18T08:50:16.907Z,69
2023-07-18T08:55:17.365Z,67
2023-07-18T08:59:39.450Z,68
2023-07-18T09:04:37.022Z,69
2023-07-18T09:09:36.666Z,64
2023-07-18T09:14:36.662Z,66
2023-07-18T09:19:38.107Z,64
2023-07-18T09:24:34.362Z,66
2023-07-18T09:29:34.045Z,65
2023-07-18T09:34:34.620Z,62
2023-07-18T09:39:34.470Z,61
2023-07-18T09:49:34.186Z,61
2023-07-18T09:54:32.615Z,62
2023-07-18T09:59:17.287Z,64
2023-07-18T10:04:16.641Z,63
2023-07-18T10:09:16.686Z,64
2023-07-18T10:14:16.591Z,66
2023-07-18T10:19:16.193Z,66
2023-07-18T10:24:17.526Z,65
2023-07-18T10:29:13.483Z,68
2023-07-18T10:34:13.221Z,68
2023-07-18T10:39:13.417Z,66
2023-07-18T10:44:15.620Z,68
2023-07-18T10:49:10.696Z,73
2023-07-18T10:54:10.921Z,75
2023-07-18T10:59:10.240Z,75
2023-07-18T11:04:12.743Z,78
2023-07-18T11:09:07.785Z,79
2023-07-18T11:14:07.364Z,78
2023-07-18T11:19:07.532Z,77
2023-07-18T11:24:07.381Z,76
2023-07-18T11:29:04.802Z,76
2023-07-18T11:34:04.236Z,77
2023-07-18T11:39:04.310Z,76
2023-07-18T11:44:03.966Z,78
2023-07-18T11:49:03.529Z,76
2023-07-18T11:54:03.574Z,76
2023-07-18T11:59:03.709Z,74
2023-07-18T12:09:05.022Z,67
2023-07-18T12:14:01.336Z,65
2023-07-18T12:19:01.262Z,62
2023-07-18T12:24:01.598Z,57
2023-07-18T12:29:01.741Z,60
2023-07-18T12:33:58.952Z,56
2023-07-18T12:38:58.991Z,60
2023-07-18T12:43:58.449Z,65
2023-07-18T12:49:04.014Z,62
2023-07-18T12:53:55.776Z,63
2023-07-18T12:58:55.307Z,67
2023-07-18T13:05:17.836Z,64
2023-07-18T13:10:15.122Z,62
2023-07-18T13:15:14.535Z,60
2023-07-18T13:20:14.632Z,56
2023-07-18T13:25:14.385Z,55
2023-07-18T13:30:13.858Z,59
2023-07-18T13:35:14.060Z,59
2023-07-18T13:40:14.189Z,61
2023-07-18T13:45:13.622Z,61
2023-07-18T13:50:18.504Z,64
2023-07-18T13:55:10.945Z,63
2023-07-18T13:59:31.803Z,64
2023-07-18T14:04:32.267Z,63
2023-07-18T14:09:30.808Z,63
2023-07-18T14:14:31.183Z,65
2023-07-18T14:19:31.011Z,66
2023-07-18T14:24:30.355Z,66
2023-07-18T14:29:31.658Z,68
2023-07-18T14:34:27.678Z,68
2023-07-18T14:39:27.245Z,67
2023-07-18T14:44:27.524Z,69
2023-07-18T14:49:27.448Z,69
2023-07-18T14:54:35.320Z,69
2023-07-18T14:59:14.105Z,67
2023-07-18T15:04:14.380Z,71
2023-07-18T15:09:14.189Z,66
2023-07-18T15:14:11.810Z,64
2023-07-18T15:19:11.507Z,66
2023-07-18T15:24:11.660Z,67
2023-07-18T15:29:11.352Z,68
2023-07-18T15:34:10.723Z,68
2023-07-18T15:39:10.855Z,67
2023-07-18T15:44:10.751Z,68
2023-07-18T15:49:11.193Z,67
2023-07-18T15:54:08.586Z,65
2023-07-18T15:59:08.182Z,65
2023-07-18T16:04:08.356Z,66
2023-07-18T16:09:07.966Z,65
2023-07-18T16:14:07.199Z,66
2023-07-18T16:19:07.423Z,66
2023-07-18T16:24:07.226Z,67
2023-07-18T16:29:06.692Z,69
2023-07-18T16:34:07.979Z,69
2023-07-18T16:39:03.956Z,70
2023-07-18T16:44:03.621Z,69
2023-07-18T16:49:03.816Z,70
2023-07-18T16:54:03.620Z,71
2023-07-18T16:59:01.028Z,71
2023-07-18T17:04:00.324Z,72
2023-07-18T17:09:00.431Z,72
2023-07-18T17:14:00.051Z,71
2023-07-18T17:18:59.396Z,71
2023-07-18T17:23:59.601Z,73
2023-07-18T17:29:00.488Z,72
2023-07-18T17:34:00.427Z,72
2023-07-18T17:38:57.681Z,71
2023-07-18T17:43:58.235Z,72
2023-07-18T17:48:58.305Z,73
2023-07-18T17:53:58.109Z,73
2023-07-18T17:58:57.239Z,73
2023-07-18T18:05:18.550Z,73
2023-07-18T18:10:18.041Z,74
2023-07-18T18:15:19.350Z,75
2023-07-18T18:20:15.399Z,75
2023-07-18T18:25:14.911Z,76
2023-07-18T18:30:15.147Z,76
2023-07-18T18:35:22.658Z,76
2023-07-18T18:40:12.430Z,76
2023-07-18T18:45:11.974Z,75
2023-07-18T18:50:11.993Z,76
2023-07-18T18:59:33.423Z,76
2023-07-18T19:04:33.529Z,76
2023-07-18T19:09:33.795Z,77
2023-07-18T19:14:33.680Z,77
2023-07-18T19:19:31.067Z,77
2023-07-18T19:24:31.480Z,77
2023-07-18T19:29:31.667Z,78
2023-07-18T19:34:31.287Z,77
2023-07-18T19:39:30.603Z,77
2023-07-18T19:44:30.865Z,77
2023-07-18T19:49:30.667Z,77
2023-07-18T19:54:30.124Z,78
2023-07-18T19:59:15.552Z,78
2023-07-18T20:04:15.410Z,79
2023-07-18T20:09:11.175Z,79
2023-07-18T20:14:11.532Z,79
2023-07-18T20:24:08.616Z,79
2023-07-18T20:29:08.107Z,80
2023-07-18T20:34:08.044Z,80
2023-07-18T20:39:07.641Z,80
2023-07-18T20:44:06.009Z,81
2023-07-18T20:49:06.078Z,81
2023-07-18T20:54:06.740Z,83
2023-07-18T21:04:05.261Z,84
2023-07-18T21:09:05.021Z,84
2023-07-18T21:14:04.503Z,85
2023-07-18T21:19:05.913Z,86
2023-07-18T21:24:01.965Z,86
2023-07-18T21:29:18.107Z,87
2023-07-18T21:34:02.052Z,87
2023-07-18T21:39:01.798Z,87
2023-07-18T21:43:59.024Z,88
2023-07-18T21:48:58.471Z,88
2023-07-18T21:53:58.513Z,89
2023-07-18T21:58:58.302Z,89
2023-07-18T22:03:57.645Z,89
2023-07-18T22:08:57.763Z,89
2023-07-18T22:13:57.906Z,90
2023-07-18T22:18:58.155Z,90
2023-07-18T22:23:55.580Z,90
2023-07-18T22:28:55.898Z,90
2023-07-18T22:33:56.036Z,91
2023-07-18T22:38:55.605Z,91
2023-07-18T22:43:55.076Z,91
2023-07-18T22:48:55.306Z,91
2023-07-18T22:53:55.244Z,91
2023-07-18T22:58:54.702Z,91
2023-07-18T23:03:56.167Z,91
2023-07-18T23:08:52.149Z,92
2023-07-18T23:13:51.724Z,92
2023-07-18T23:18:52.180Z,92
2023-07-18T23:23:52.140Z,92
2023-07-18T23:28:49.517Z,92
2023-07-18T23:33:48.939Z,92
2023-07-18T23:38:48.853Z,92
2023-07-18T23:43:48.447Z,92
2023-07-18T23:48:47.726Z,92
2023-07-18T23:53:47.920Z,93
2023-07-18T23:58:48.765Z,93
